Manbij, Syria
Current Conditions -  °F | °C
As of 11:20 AM on Friday 24 Oct 2014 (Local Time) from LTAJ Reporting Station
Clear Clear  
Wind Chill: 66°   Ceiling: Unl
Heat Index: 66°   Visibility: 6mi
Dew Point: 46°   Wind: 2mph
Humidity: 49%   Direction: NA
Pressure: 30.09"   Gusts: NA
Location:  36.54°N, 37.96°E
Report Text: LTAJ 240820Z VRB02KT CAVOK 19/08 Q1019 NOSIG
Loading
Personal Weather Stations






























Interactive Weather Map New forecast layout! Learn more

10-Day Weather Forecast

Advertisements
Track Severe Weather on mobile